PWSweather.com
Personal Weather Stations
Station Observations
IPORTUGA89
BarosaPT

BarosaPT

Lat: 39.754028, Lon: -8.843

Elevation: 98

Station Type: Davis Vp2

High Low Average
Temperature 70.5°F21.4°C 44.1°F6.7°C 56.3°F13.5°C
Dew Point 51.1°F10.6°C 42.1°F5.6°C 47.4°F8.6°C
Winds 17.0 mph 27.4 kmh Calm Calm 5.0 mph S8.0 kmh S
Wind Gusts 27.1 mph43.6 kmh -- 9.0 mph14.5 kmh
Humidity 95% 46% 75%
Pressure 30.42 in1030.1 mb 30.35 in1027.8 mb -
Precipitation 0.01 in0.3 mm - -
Hour Temp Dew Point Humidity Winds Wind Gusts Pressure Precip Precip Rate Daily Precip Total
12:07 AM 48.9°F9.4°C 46.4°F8.0°C 91% Calm Calm -- 30.40 in1029.5 mb 0.00 in0.0 mm 0.00 in0.0 mm 0.00 in0.0 mm
12:17 AM 48.6°F9.2°C 46.4°F8.0°C 92% Calm Calm -- 30.40 in1029.5 mb 0.00 in0.0 mm 0.00 in0.0 mm 0.00 in0.0 mm
12:27 AM 48.6°F9.2°C 46.0°F7.8°C 91% Calm Calm 2.9 mph4.7 kmh 30.39 in1029.1 mb 0.00 in0.0 mm 0.00 in0.0 mm 0.00 in0.0 mm
12:38 AM 48.0°F8.9°C 45.9°F7.7°C 92% 0.9 mph SSW1.4 kmh SSW 2.9 mph4.7 kmh 30.40 in1029.5 mb 0.00 in0.0 mm 0.00 in0.0 mm 0.00 in0.0 mm
12:48 AM 48.0°F8.9°C 45.9°F7.7°C 92% Calm Calm -- 30.40 in1029.5 mb 0.00 in0.0 mm 0.00 in0.0 mm 0.00 in0.0 mm
12:58 AM 47.5°F8.6°C 45.0°F7.2°C 91% Calm Calm -- 30.39 in1029.1 mb 0.00 in0.0 mm 0.00 in0.0 mm 0.00 in0.0 mm
01:08 AM 47.5°F8.6°C 45.3°F7.4°C 92% Calm Calm -- 30.39 in1029.1 mb 0.00 in0.0 mm 0.00 in0.0 mm 0.00 in0.0 mm
01:18 AM 47.1°F8.4°C 45.0°F7.2°C 92% Calm Calm -- 30.39 in1029.1 mb 0.00 in0.0 mm 0.00 in0.0 mm 0.00 in0.0 mm
01:28 AM 47.1°F8.4°C 45.0°F7.2°C 92% Calm Calm -- 30.39 in1029.1 mb 0.00 in0.0 mm 0.00 in0.0 mm 0.00 in0.0 mm
01:38 AM 46.8°F8.2°C 44.6°F7.0°C 92% 0.9 mph SW1.4 kmh SW 2.9 mph4.7 kmh 30.39 in1029.1 mb 0.00 in0.0 mm 0.00 in0.0 mm 0.00 in0.0 mm
01:48 AM 46.8°F8.2°C 44.8°F7.1°C 93% 0.9 mph SW1.4 kmh SW 2.0 mph3.2 kmh 30.38 in1028.8 mb 0.00 in0.0 mm 0.00 in0.0 mm 0.00 in0.0 mm
01:58 AM 46.6°F8.1°C 44.6°F7.0°C 93% 0.9 mph SW1.4 kmh SW 2.0 mph3.2 kmh 30.38 in1028.8 mb 0.00 in0.0 mm 0.00 in0.0 mm 0.00 in0.0 mm
02:09 AM 46.2°F7.9°C 44.2°F6.8°C 93% 0.9 mph SW1.4 kmh SW 2.0 mph3.2 kmh 30.38 in1028.8 mb 0.00 in0.0 mm 0.00 in0.0 mm 0.00 in0.0 mm
02:19 AM 45.9°F7.7°C 43.9°F6.6°C 93% 0.9 mph SW1.4 kmh SW 2.0 mph3.2 kmh 30.38 in1028.8 mb 0.00 in0.0 mm 0.00 in0.0 mm 0.00 in0.0 mm
02:29 AM 45.9°F7.7°C 43.9°F6.6°C 93% 2.0 mph SW3.2 kmh SW 2.9 mph4.7 kmh 30.37 in1028.4 mb 0.00 in0.0 mm 0.00 in0.0 mm 0.00 in0.0 mm
02:39 AM 45.7°F7.6°C 43.7°F6.5°C 93% Calm Calm 2.0 mph3.2 kmh 30.37 in1028.4 mb 0.00 in0.0 mm 0.00 in0.0 mm 0.00 in0.0 mm
02:49 AM 45.7°F7.6°C 43.7°F6.5°C 93% 0.9 mph SW1.4 kmh SW 2.9 mph4.7 kmh 30.37 in1028.4 mb 0.00 in0.0 mm 0.00 in0.0 mm 0.00 in0.0 mm
02:59 AM 46.2°F7.9°C 44.6°F7.0°C 94% 2.0 mph NW3.2 kmh NW 4.9 mph7.9 kmh 30.37 in1028.4 mb 0.00 in0.0 mm 0.00 in0.0 mm 0.00 in0.0 mm
03:09 AM 45.7°F7.6°C 43.7°F6.5°C 93% Calm Calm 2.9 mph4.7 kmh 30.37 in1028.4 mb 0.00 in0.0 mm 0.00 in0.0 mm 0.00 in0.0 mm
03:19 AM 45.1°F7.3°C 43.2°F6.2°C 93% Calm Calm -- 30.37 in1028.4 mb 0.00 in0.0 mm 0.00 in0.0 mm 0.00 in0.0 mm
03:30 AM 45.0°F7.2°C 43.0°F6.1°C 93% Calm Calm -- 30.37 in1028.4 mb 0.00 in0.0 mm 0.00 in0.0 mm 0.00 in0.0 mm
03:40 AM 45.0°F7.2°C 43.0°F6.1°C 93% Calm Calm -- 30.37 in1028.4 mb 0.00 in0.0 mm 0.00 in0.0 mm 0.00 in0.0 mm
03:50 AM 44.2°F6.8°C 42.3°F5.7°C 93% Calm Calm -- 30.37 in1028.4 mb 0.00 in0.0 mm 0.00 in0.0 mm 0.00 in0.0 mm
04:00 AM 44.4°F6.9°C 42.8°F6.0°C 94% 2.0 mph NNW3.2 kmh NNW 4.0 mph6.4 kmh 30.37 in1028.4 mb 0.00 in0.0 mm 0.00 in0.0 mm 0.00 in0.0 mm
04:10 AM 44.6°F7.0°C 43.0°F6.1°C 94% 0.9 mph NW1.4 kmh NW 2.0 mph3.2 kmh 30.37 in1028.4 mb 0.00 in0.0 mm 0.00 in0.0 mm 0.00 in0.0 mm
04:20 AM 45.3°F7.4°C 43.7°F6.5°C 94% 0.9 mph W1.4 kmh W 2.9 mph4.7 kmh 30.37 in1028.4 mb 0.00 in0.0 mm 0.00 in0.0 mm 0.00 in0.0 mm
04:30 AM 47.3°F8.5°C 45.9°F7.7°C 95% 2.9 mph WSW4.7 kmh WSW 6.0 mph9.7 kmh 30.37 in1028.4 mb 0.00 in0.0 mm 0.00 in0.0 mm 0.00 in0.0 mm
04:40 AM 45.1°F7.3°C 43.2°F6.2°C 93% 0.9 mph E1.4 kmh E 4.0 mph6.4 kmh 30.37 in1028.4 mb 0.00 in0.0 mm 0.00 in0.0 mm 0.00 in0.0 mm
04:50 AM 44.1°F6.7°C 42.1°F5.6°C 93% 0.9 mph SW1.4 kmh SW 2.9 mph4.7 kmh 30.37 in1028.4 mb 0.00 in0.0 mm 0.00 in0.0 mm 0.00 in0.0 mm
05:01 AM 44.8°F7.1°C 43.2°F6.2°C 94% Calm Calm 2.9 mph4.7 kmh 30.37 in1028.4 mb 0.00 in0.0 mm 0.00 in0.0 mm 0.00 in0.0 mm
05:11 AM 46.0°F7.8°C 44.6°F7.0°C 95% 0.9 mph ESE1.4 kmh ESE 6.9 mph11.1 kmh 30.37 in1028.4 mb 0.00 in0.0 mm 0.00 in0.0 mm 0.00 in0.0 mm
05:21 AM 46.2°F7.9°C 44.6°F7.0°C 94% 0.9 mph ENE1.4 kmh ENE 4.0 mph6.4 kmh 30.37 in1028.4 mb 0.00 in0.0 mm 0.00 in0.0 mm 0.00 in0.0 mm
05:31 AM 46.6°F8.1°C 45.0°F7.2°C 94% 0.9 mph ENE1.4 kmh ENE 2.0 mph3.2 kmh 30.38 in1028.8 mb 0.00 in0.0 mm 0.00 in0.0 mm 0.00 in0.0 mm
05:41 AM 47.1°F8.4°C 45.5°F7.5°C 94% 0.9 mph WNW1.4 kmh WNW 2.9 mph4.7 kmh 30.38 in1028.8 mb 0.00 in0.0 mm 0.00 in0.0 mm 0.00 in0.0 mm
05:51 AM 47.3°F8.5°C 45.3°F7.4°C 93% 2.0 mph NE3.2 kmh NE 4.0 mph6.4 kmh 30.38 in1028.8 mb 0.00 in0.0 mm 0.00 in0.0 mm 0.00 in0.0 mm
06:01 AM 47.5°F8.6°C 45.5°F7.5°C 93% 0.9 mph NE1.4 kmh NE 2.0 mph3.2 kmh 30.38 in1028.8 mb 0.00 in0.0 mm 0.00 in0.0 mm 0.00 in0.0 mm
06:11 AM 48.0°F8.9°C 46.0°F7.8°C 93% 0.9 mph NE1.4 kmh NE 2.9 mph4.7 kmh 30.38 in1028.8 mb 0.00 in0.0 mm 0.00 in0.0 mm 0.00 in0.0 mm
06:21 AM 47.8°F8.8°C 45.7°F7.6°C 92% 0.9 mph E1.4 kmh E 6.0 mph9.7 kmh 30.38 in1028.8 mb 0.00 in0.0 mm 0.00 in0.0 mm 0.00 in0.0 mm
06:31 AM 48.0°F8.9°C 46.0°F7.8°C 93% 0.9 mph E1.4 kmh E 6.0 mph9.7 kmh 30.38 in1028.8 mb 0.00 in0.0 mm 0.00 in0.0 mm 0.01 in0.3 mm
06:41 AM 48.0°F8.9°C 45.5°F7.5°C 91% 0.9 mph ENE1.4 kmh ENE 2.9 mph4.7 kmh 30.37 in1028.4 mb 0.01 in0.3 mm 0.06 in1.5 mm 0.01 in0.3 mm
06:51 AM 47.7°F8.7°C 45.1°F7.3°C 91% 2.0 mph WNW3.2 kmh WNW 4.0 mph6.4 kmh 30.37 in1028.4 mb 0.01 in0.3 mm 0.00 in0.0 mm 0.01 in0.3 mm
07:01 AM 46.9°F8.3°C 44.4°F6.9°C 91% 0.9 mph WNW1.4 kmh WNW 4.0 mph6.4 kmh 30.38 in1028.8 mb 0.01 in0.3 mm 0.00 in0.0 mm 0.01 in0.3 mm
07:12 AM 46.9°F8.3°C 44.4°F6.9°C 91% Calm Calm -- 30.38 in1028.8 mb 0.01 in0.3 mm 0.00 in0.0 mm 0.01 in0.3 mm
07:22 AM 46.6°F8.1°C 44.4°F6.9°C 92% 0.9 mph SE1.4 kmh SE 6.9 mph11.1 kmh 30.38 in1028.8 mb 0.01 in0.3 mm 0.00 in0.0 mm 0.01 in0.3 mm
07:32 AM 48.0°F8.9°C 46.0°F7.8°C 93% 4.0 mph SE6.4 kmh SE 10.1 mph16.3 kmh 30.38 in1028.8 mb 0.00 in0.0 mm 0.00 in0.0 mm 0.01 in0.3 mm
07:42 AM 50.5°F10.3°C 48.0°F8.9°C 91% 6.0 mph SE9.7 kmh SE 10.1 mph16.3 kmh 30.38 in1028.8 mb 0.00 in0.0 mm 0.00 in0.0 mm 0.01 in0.3 mm
07:52 AM 52.0°F11.1°C 47.8°F8.8°C 86% 4.9 mph SE7.9 kmh SE 8.1 mph13.0 kmh 30.39 in1029.1 mb 0.00 in0.0 mm 0.00 in0.0 mm 0.01 in0.3 mm
08:02 AM 53.1°F11.7°C 47.7°F8.7°C 82% 6.0 mph SE9.7 kmh SE 11.0 mph17.7 kmh 30.39 in1029.1 mb 0.00 in0.0 mm 0.00 in0.0 mm 0.01 in0.3 mm
08:12 AM 53.6°F12.0°C 47.3°F8.5°C 79% 6.0 mph SE9.7 kmh SE 10.1 mph16.3 kmh 30.39 in1029.1 mb 0.00 in0.0 mm 0.00 in0.0 mm 0.01 in0.3 mm
08:22 AM 54.1°F12.3°C 47.1°F8.4°C 77% 8.9 mph SE14.3 kmh SE 17.0 mph27.4 kmh 30.39 in1029.1 mb 0.00 in0.0 mm 0.00 in0.0 mm 0.01 in0.3 mm
08:32 AM 55.0°F12.8°C 46.9°F8.3°C 74% 8.9 mph SE14.3 kmh SE 17.9 mph28.8 kmh 30.40 in1029.5 mb 0.00 in0.0 mm 0.00 in0.0 mm 0.01 in0.3 mm
08:42 AM 55.4°F13.0°C 47.3°F8.5°C 74% 6.0 mph SE9.7 kmh SE 12.1 mph19.5 kmh 30.40 in1029.5 mb 0.00 in0.0 mm 0.00 in0.0 mm 0.01 in0.3 mm
08:52 AM 55.9°F13.3°C 46.8°F8.2°C 71% 8.1 mph SE13.0 kmh SE 13.0 mph20.9 kmh 30.40 in1029.5 mb 0.00 in0.0 mm 0.00 in0.0 mm 0.01 in0.3 mm
09:02 AM 56.1°F13.4°C 46.8°F8.2°C 71% 6.9 mph S11.1 kmh S 14.1 mph22.7 kmh 30.40 in1029.5 mb 0.00 in0.0 mm 0.00 in0.0 mm 0.01 in0.3 mm
09:12 AM 56.7°F13.7°C 46.9°F8.3°C 70% 6.0 mph E9.7 kmh E 11.0 mph17.7 kmh 30.40 in1029.5 mb 0.00 in0.0 mm 0.00 in0.0 mm 0.01 in0.3 mm
09:22 AM 57.2°F14.0°C 46.8°F8.2°C 68% 6.0 mph SSE9.7 kmh SSE 13.0 mph20.9 kmh 30.40 in1029.5 mb 0.00 in0.0 mm 0.00 in0.0 mm 0.01 in0.3 mm
09:32 AM 57.7°F14.3°C 46.9°F8.3°C 67% 8.1 mph ESE13.0 kmh ESE 15.0 mph24.1 kmh 30.40 in1029.5 mb 0.00 in0.0 mm 0.00 in0.0 mm 0.01 in0.3 mm
09:42 AM 58.5°F14.7°C 47.1°F8.4°C 66% 8.9 mph ESE14.3 kmh ESE 16.1 mph25.9 kmh 30.40 in1029.5 mb 0.00 in0.0 mm 0.00 in0.0 mm 0.01 in0.3 mm
09:52 AM 59.2°F15.1°C 47.5°F8.6°C 65% 11.0 mph SE17.7 kmh SE 19.9 mph32.0 kmh 30.40 in1029.5 mb 0.00 in0.0 mm 0.00 in0.0 mm 0.01 in0.3 mm
10:02 AM 59.2°F15.1°C 47.5°F8.6°C 65% 13.0 mph SE20.9 kmh SE 19.0 mph30.6 kmh 30.40 in1029.5 mb 0.00 in0.0 mm 0.00 in0.0 mm 0.01 in0.3 mm
10:12 AM 59.0°F15.0°C 47.3°F8.5°C 65% 12.1 mph SE19.5 kmh SE 17.9 mph28.8 kmh 30.41 in1029.8 mb 0.00 in0.0 mm 0.00 in0.0 mm 0.01 in0.3 mm
10:22 AM 59.5°F15.3°C 47.8°F8.8°C 65% 10.1 mph ESE16.3 kmh ESE 15.0 mph24.1 kmh 30.41 in1029.8 mb 0.00 in0.0 mm 0.00 in0.0 mm 0.01 in0.3 mm
10:32 AM 60.3°F15.7°C 48.4°F9.1°C 65% 10.1 mph SE16.3 kmh SE 14.1 mph22.7 kmh 30.40 in1029.5 mb 0.00 in0.0 mm 0.00 in0.0 mm 0.01 in0.3 mm
10:42 AM 61.2°F16.2°C 48.4°F9.1°C 63% 11.0 mph SE17.7 kmh SE 17.0 mph27.4 kmh 30.40 in1029.5 mb 0.00 in0.0 mm 0.00 in0.0 mm 0.01 in0.3 mm
10:52 AM 61.2°F16.2°C 48.4°F9.1°C 63% 13.0 mph ESE20.9 kmh ESE 21.9 mph35.2 kmh 30.40 in1029.5 mb 0.00 in0.0 mm 0.00 in0.0 mm 0.01 in0.3 mm
11:02 AM 61.5°F16.4°C 47.5°F8.6°C 60% 14.1 mph SE22.7 kmh SE 21.0 mph33.8 kmh 30.40 in1029.5 mb 0.00 in0.0 mm 0.00 in0.0 mm 0.01 in0.3 mm
11:12 AM 61.9°F16.6°C 47.5°F8.6°C 59% 15.0 mph ESE24.1 kmh ESE 25.1 mph40.4 kmh 30.40 in1029.5 mb 0.00 in0.0 mm 0.00 in0.0 mm 0.01 in0.3 mm
11:22 AM 62.4°F16.9°C 47.8°F8.8°C 59% 17.0 mph SE27.4 kmh SE 25.1 mph40.4 kmh 30.39 in1029.1 mb 0.00 in0.0 mm 0.00 in0.0 mm 0.01 in0.3 mm
11:32 AM 63.3°F17.4°C 49.3°F9.6°C 60% 13.0 mph SE20.9 kmh SE 25.1 mph40.4 kmh 30.39 in1029.1 mb 0.00 in0.0 mm 0.00 in0.0 mm 0.01 in0.3 mm
11:42 AM 63.7°F17.6°C 49.1°F9.5°C 59% 12.1 mph ESE19.5 kmh ESE 23.9 mph38.5 kmh 30.38 in1028.8 mb 0.00 in0.0 mm 0.00 in0.0 mm 0.01 in0.3 mm
11:52 AM 63.7°F17.6°C 48.6°F9.2°C 58% 14.1 mph SE22.7 kmh SE 27.1 mph43.6 kmh 30.38 in1028.8 mb 0.00 in0.0 mm 0.00 in0.0 mm 0.01 in0.3 mm
12:02 PM 63.9°F17.7°C 48.4°F9.1°C 57% 15.0 mph ESE24.1 kmh ESE 23.9 mph38.5 kmh 30.37 in1028.4 mb 0.00 in0.0 mm 0.00 in0.0 mm 0.01 in0.3 mm
12:12 PM 64.4°F18.0°C 48.9°F9.4°C 57% 15.0 mph SE24.1 kmh SE 25.1 mph40.4 kmh 30.37 in1028.4 mb 0.00 in0.0 mm 0.00 in0.0 mm 0.01 in0.3 mm
12:22 PM 64.8°F18.2°C 49.1°F9.5°C 57% 12.1 mph SE19.5 kmh SE 21.0 mph33.8 kmh 30.37 in1028.4 mb 0.00 in0.0 mm 0.00 in0.0 mm 0.01 in0.3 mm
12:32 PM 64.4°F18.0°C 48.4°F9.1°C 56% 14.1 mph E22.7 kmh E 21.9 mph35.2 kmh 30.37 in1028.4 mb 0.00 in0.0 mm 0.00 in0.0 mm 0.01 in0.3 mm
12:42 PM 64.8°F18.2°C 49.1°F9.5°C 57% 13.0 mph E20.9 kmh E 19.9 mph32.0 kmh 30.37 in1028.4 mb 0.00 in0.0 mm 0.00 in0.0 mm 0.01 in0.3 mm
12:52 PM 65.5°F18.6°C 49.8°F9.9°C 57% 14.1 mph SE22.7 kmh SE 21.9 mph35.2 kmh 30.37 in1028.4 mb 0.00 in0.0 mm 0.00 in0.0 mm 0.01 in0.3 mm
01:02 PM 66.4°F19.1°C 49.6°F9.8°C 55% 12.1 mph SE19.5 kmh SE 17.0 mph27.4 kmh 30.37 in1028.4 mb 0.00 in0.0 mm 0.00 in0.0 mm 0.01 in0.3 mm
01:12 PM 66.9°F19.4°C 49.3°F9.6°C 53% 10.1 mph SE16.3 kmh SE 19.0 mph30.6 kmh 30.36 in1028.1 mb 0.00 in0.0 mm 0.00 in0.0 mm 0.01 in0.3 mm
01:22 PM 66.9°F19.4°C 49.8°F9.9°C 54% 11.0 mph E17.7 kmh E 17.0 mph27.4 kmh 30.36 in1028.1 mb 0.00 in0.0 mm 0.00 in0.0 mm 0.01 in0.3 mm
01:32 PM 67.6°F19.8°C 50.4°F10.2°C 54% 11.0 mph SE17.7 kmh SE 17.0 mph27.4 kmh 30.36 in1028.1 mb 0.00 in0.0 mm 0.00 in0.0 mm 0.01 in0.3 mm
01:42 PM 67.6°F19.8°C 49.8°F9.9°C 53% 13.0 mph SE20.9 kmh SE 19.0 mph30.6 kmh 30.36 in1028.1 mb 0.00 in0.0 mm 0.00 in0.0 mm 0.01 in0.3 mm
01:52 PM 68.2°F20.1°C 50.9°F10.5°C 54% 12.1 mph SE19.5 kmh SE 19.0 mph30.6 kmh 30.36 in1028.1 mb 0.00 in0.0 mm 0.00 in0.0 mm 0.01 in0.3 mm
02:02 PM 68.2°F20.1°C 49.3°F9.6°C 51% 12.1 mph SE19.5 kmh SE 17.0 mph27.4 kmh 30.36 in1028.1 mb 0.00 in0.0 mm 0.00 in0.0 mm 0.01 in0.3 mm
02:12 PM 68.2°F20.1°C 49.3°F9.6°C 51% 11.0 mph SSE17.7 kmh SSE 21.0 mph33.8 kmh 30.36 in1028.1 mb 0.00 in0.0 mm 0.00 in0.0 mm 0.01 in0.3 mm
02:22 PM 68.4°F20.2°C 48.9°F9.4°C 50% 13.0 mph SE20.9 kmh SE 25.9 mph41.7 kmh 30.36 in1028.1 mb 0.00 in0.0 mm 0.00 in0.0 mm 0.01 in0.3 mm
02:32 PM 69.3°F20.7°C 50.4°F10.2°C 51% 8.9 mph SE14.3 kmh SE 14.1 mph22.7 kmh 30.36 in1028.1 mb 0.00 in0.0 mm 0.00 in0.0 mm 0.01 in0.3 mm
02:42 PM 69.3°F20.7°C 50.4°F10.2°C 51% 11.0 mph SE17.7 kmh SE 16.1 mph25.9 kmh 30.36 in1028.1 mb 0.00 in0.0 mm 0.00 in0.0 mm 0.01 in0.3 mm
02:52 PM 69.3°F20.7°C 49.3°F9.6°C 49% 11.0 mph SE17.7 kmh SE 19.0 mph30.6 kmh 30.35 in1027.8 mb 0.00 in0.0 mm 0.00 in0.0 mm 0.01 in0.3 mm
03:02 PM 69.4°F20.8°C 50.0°F10.0°C 50% 10.1 mph ESE16.3 kmh ESE 17.0 mph27.4 kmh 30.35 in1027.8 mb 0.00 in0.0 mm 0.00 in0.0 mm 0.01 in0.3 mm
03:12 PM 69.4°F20.8°C 51.1°F10.6°C 52% 10.1 mph SE16.3 kmh SE 19.0 mph30.6 kmh 30.36 in1028.1 mb 0.00 in0.0 mm 0.00 in0.0 mm 0.01 in0.3 mm
03:22 PM 69.4°F20.8°C 50.0°F10.0°C 50% 12.1 mph SE19.5 kmh SE 19.0 mph30.6 kmh 30.36 in1028.1 mb 0.00 in0.0 mm 0.00 in0.0 mm 0.01 in0.3 mm
03:32 PM 69.6°F20.9°C 50.7°F10.4°C 51% 11.0 mph SSE17.7 kmh SSE 16.1 mph25.9 kmh 30.36 in1028.1 mb 0.00 in0.0 mm 0.00 in0.0 mm 0.01 in0.3 mm
03:42 PM 70.2°F21.2°C 49.6°F9.8°C 48% 8.1 mph SE13.0 kmh SE 12.1 mph19.5 kmh 30.36 in1028.1 mb 0.00 in0.0 mm 0.00 in0.0 mm 0.01 in0.3 mm
03:52 PM 70.5°F21.4°C 48.7°F9.3°C 46% 8.1 mph SE13.0 kmh SE 14.1 mph22.7 kmh 30.36 in1028.1 mb 0.00 in0.0 mm 0.00 in0.0 mm 0.01 in0.3 mm
04:02 PM 70.3°F21.3°C 48.6°F9.2°C 46% 8.9 mph SE14.3 kmh SE 17.9 mph28.8 kmh 30.36 in1028.1 mb 0.00 in0.0 mm 0.00 in0.0 mm 0.01 in0.3 mm
04:12 PM 69.8°F21.0°C 48.7°F9.3°C 47% 8.1 mph SE13.0 kmh SE 17.0 mph27.4 kmh 30.36 in1028.1 mb 0.00 in0.0 mm 0.00 in0.0 mm 0.01 in0.3 mm
04:22 PM 70.2°F21.2°C 48.4°F9.1°C 46% 8.1 mph S13.0 kmh S 16.1 mph25.9 kmh 30.37 in1028.4 mb 0.00 in0.0 mm 0.00 in0.0 mm 0.01 in0.3 mm
04:32 PM 69.6°F20.9°C 49.1°F9.5°C 48% 8.9 mph SE14.3 kmh SE 16.1 mph25.9 kmh 30.36 in1028.1 mb 0.00 in0.0 mm 0.00 in0.0 mm 0.01 in0.3 mm
04:42 PM 69.3°F20.7°C 49.3°F9.6°C 49% 10.1 mph SE16.3 kmh SE 17.9 mph28.8 kmh 30.36 in1028.1 mb 0.00 in0.0 mm 0.00 in0.0 mm 0.01 in0.3 mm
04:52 PM 68.7°F20.4°C 49.3°F9.6°C 50% 6.9 mph SSE11.1 kmh SSE 12.1 mph19.5 kmh 30.36 in1028.1 mb 0.00 in0.0 mm 0.00 in0.0 mm 0.01 in0.3 mm
05:02 PM 68.7°F20.4°C 49.3°F9.6°C 50% 6.9 mph SE11.1 kmh SE 11.0 mph17.7 kmh 30.37 in1028.4 mb 0.00 in0.0 mm 0.00 in0.0 mm 0.01 in0.3 mm
05:12 PM 68.2°F20.1°C 49.3°F9.6°C 51% 8.1 mph SE13.0 kmh SE 12.1 mph19.5 kmh 30.37 in1028.4 mb 0.00 in0.0 mm 0.00 in0.0 mm 0.01 in0.3 mm
05:23 PM 67.6°F19.8°C 49.5°F9.7°C 52% 6.0 mph SSE9.7 kmh SSE 12.1 mph19.5 kmh 30.37 in1028.4 mb 0.00 in0.0 mm 0.00 in0.0 mm 0.01 in0.3 mm
05:33 PM 67.1°F19.5°C 49.8°F9.9°C 54% 4.0 mph SE6.4 kmh SE 10.1 mph16.3 kmh 30.37 in1028.4 mb 0.00 in0.0 mm 0.00 in0.0 mm 0.01 in0.3 mm
05:43 PM 66.6°F19.2°C 49.5°F9.7°C 54% 4.9 mph SE7.9 kmh SE 8.9 mph14.3 kmh 30.37 in1028.4 mb 0.00 in0.0 mm 0.00 in0.0 mm 0.01 in0.3 mm
05:53 PM 65.7°F18.7°C 50.5°F10.3°C 58% 4.0 mph SE6.4 kmh SE 6.0 mph9.7 kmh 30.37 in1028.4 mb 0.00 in0.0 mm 0.00 in0.0 mm 0.01 in0.3 mm
06:03 PM 64.0°F17.8°C 49.8°F9.9°C 60% 2.9 mph SSE4.7 kmh SSE 6.0 mph9.7 kmh 30.37 in1028.4 mb 0.00 in0.0 mm 0.00 in0.0 mm 0.01 in0.3 mm
06:13 PM 63.3°F17.4°C 50.0°F10.0°C 62% 4.0 mph SE6.4 kmh SE 8.1 mph13.0 kmh 30.37 in1028.4 mb 0.00 in0.0 mm 0.00 in0.0 mm 0.01 in0.3 mm
06:23 PM 63.7°F17.6°C 50.4°F10.2°C 62% 4.9 mph S7.9 kmh S 8.1 mph13.0 kmh 30.38 in1028.8 mb 0.00 in0.0 mm 0.00 in0.0 mm 0.01 in0.3 mm
06:33 PM 63.3°F17.4°C 50.5°F10.3°C 63% 4.0 mph SE6.4 kmh SE 8.9 mph14.3 kmh 30.38 in1028.8 mb 0.00 in0.0 mm 0.00 in0.0 mm 0.01 in0.3 mm
06:43 PM 63.7°F17.6°C 50.4°F10.2°C 62% 4.9 mph SSE7.9 kmh SSE 8.9 mph14.3 kmh 30.38 in1028.8 mb 0.00 in0.0 mm 0.00 in0.0 mm 0.01 in0.3 mm
06:53 PM 62.8°F17.1°C 50.0°F10.0°C 63% 2.9 mph S4.7 kmh S 6.9 mph11.1 kmh 30.39 in1029.1 mb 0.00 in0.0 mm 0.00 in0.0 mm 0.01 in0.3 mm
07:03 PM 61.9°F16.6°C 50.4°F10.2°C 66% 2.0 mph S3.2 kmh S 4.9 mph7.9 kmh 30.39 in1029.1 mb 0.00 in0.0 mm 0.00 in0.0 mm 0.01 in0.3 mm
07:13 PM 60.3°F15.7°C 50.0°F10.0°C 69% 0.9 mph S1.4 kmh S 2.9 mph4.7 kmh 30.39 in1029.1 mb 0.00 in0.0 mm 0.00 in0.0 mm 0.01 in0.3 mm
07:23 PM 59.2°F15.1°C 49.8°F9.9°C 71% 0.9 mph S1.4 kmh S 2.9 mph4.7 kmh 30.40 in1029.5 mb 0.00 in0.0 mm 0.00 in0.0 mm 0.01 in0.3 mm
07:33 PM 58.3°F14.6°C 49.6°F9.8°C 73% 0.9 mph SSW1.4 kmh SSW 2.9 mph4.7 kmh 30.40 in1029.5 mb 0.00 in0.0 mm 0.00 in0.0 mm 0.01 in0.3 mm
07:43 PM 57.4°F14.1°C 49.5°F9.7°C 75% 0.9 mph SSW1.4 kmh SSW 2.0 mph3.2 kmh 30.40 in1029.5 mb 0.00 in0.0 mm 0.00 in0.0 mm 0.01 in0.3 mm
07:53 PM 56.7°F13.7°C 49.5°F9.7°C 77% 0.9 mph SSW1.4 kmh SSW 2.9 mph4.7 kmh 30.40 in1029.5 mb 0.00 in0.0 mm 0.00 in0.0 mm 0.01 in0.3 mm
08:03 PM 56.5°F13.6°C 49.6°F9.8°C 78% 0.9 mph SSW1.4 kmh SSW 2.0 mph3.2 kmh 30.40 in1029.5 mb 0.00 in0.0 mm 0.00 in0.0 mm 0.01 in0.3 mm
08:13 PM 56.1°F13.4°C 49.6°F9.8°C 79% 0.9 mph SSW1.4 kmh SSW 2.0 mph3.2 kmh 30.40 in1029.5 mb 0.00 in0.0 mm 0.00 in0.0 mm 0.01 in0.3 mm
08:23 PM 55.9°F13.3°C 49.5°F9.7°C 79% Calm Calm -- 30.40 in1029.5 mb 0.00 in0.0 mm 0.00 in0.0 mm 0.01 in0.3 mm
08:33 PM 55.2°F12.9°C 49.1°F9.5°C 80% Calm Calm 2.0 mph3.2 kmh 30.40 in1029.5 mb 0.00 in0.0 mm 0.00 in0.0 mm 0.01 in0.3 mm
08:43 PM 54.7°F12.6°C 49.3°F9.6°C 82% 2.0 mph SW3.2 kmh SW 4.0 mph6.4 kmh 30.40 in1029.5 mb 0.00 in0.0 mm 0.00 in0.0 mm 0.01 in0.3 mm
08:53 PM 55.4°F13.0°C 49.3°F9.6°C 80% 2.0 mph S3.2 kmh S 4.0 mph6.4 kmh 30.41 in1029.8 mb 0.00 in0.0 mm 0.00 in0.0 mm 0.01 in0.3 mm
09:03 PM 54.5°F12.5°C 48.7°F9.3°C 81% 2.0 mph S3.2 kmh S 4.9 mph7.9 kmh 30.41 in1029.8 mb 0.00 in0.0 mm 0.00 in0.0 mm 0.01 in0.3 mm
09:13 PM 54.0°F12.2°C 48.6°F9.2°C 82% Calm Calm 2.0 mph3.2 kmh 30.41 in1029.8 mb 0.00 in0.0 mm 0.00 in0.0 mm 0.01 in0.3 mm
09:23 PM 53.6°F12.0°C 48.6°F9.2°C 83% 0.9 mph S1.4 kmh S 2.0 mph3.2 kmh 30.41 in1029.8 mb 0.00 in0.0 mm 0.00 in0.0 mm 0.01 in0.3 mm
09:33 PM 53.4°F11.9°C 48.7°F9.3°C 84% 0.9 mph SW1.4 kmh SW 2.9 mph4.7 kmh 30.41 in1029.8 mb 0.00 in0.0 mm 0.00 in0.0 mm 0.01 in0.3 mm
09:43 PM 53.6°F12.0°C 48.9°F9.4°C 84% Calm Calm 2.0 mph3.2 kmh 30.41 in1029.8 mb 0.00 in0.0 mm 0.00 in0.0 mm 0.01 in0.3 mm
09:53 PM 52.9°F11.6°C 48.2°F9.0°C 84% Calm Calm -- 30.42 in1030.1 mb 0.00 in0.0 mm 0.00 in0.0 mm 0.01 in0.3 mm
10:04 PM 52.3°F11.3°C 48.0°F8.9°C 85% 0.9 mph SW1.4 kmh SW 2.9 mph4.7 kmh 30.41 in1029.8 mb 0.00 in0.0 mm 0.00 in0.0 mm 0.01 in0.3 mm
10:14 PM 52.0°F11.1°C 47.8°F8.8°C 86% 0.9 mph SW1.4 kmh SW 2.0 mph3.2 kmh 30.42 in1030.1 mb 0.00 in0.0 mm 0.00 in0.0 mm 0.01 in0.3 mm
10:24 PM 52.0°F11.1°C 47.8°F8.8°C 86% Calm Calm 2.0 mph3.2 kmh 30.42 in1030.1 mb 0.00 in0.0 mm 0.00 in0.0 mm 0.01 in0.3 mm
10:34 PM 51.8°F11.0°C 48.0°F8.9°C 87% Calm Calm -- 30.42 in1030.1 mb 0.00 in0.0 mm 0.00 in0.0 mm 0.01 in0.3 mm
10:44 PM 51.3°F10.7°C 47.3°F8.5°C 86% Calm Calm 2.0 mph3.2 kmh 30.42 in1030.1 mb 0.00 in0.0 mm 0.00 in0.0 mm 0.01 in0.3 mm
10:54 PM 50.9°F10.5°C 47.1°F8.4°C 87% Calm Calm 0.9 mph1.4 kmh 30.42 in1030.1 mb 0.00 in0.0 mm 0.00 in0.0 mm 0.01 in0.3 mm
11:04 PM 50.5°F10.3°C 47.1°F8.4°C 88% Calm Calm -- 30.42 in1030.1 mb 0.00 in0.0 mm 0.00 in0.0 mm 0.01 in0.3 mm
11:14 PM 50.2°F10.1°C 46.8°F8.2°C 88% Calm Calm 0.9 mph1.4 kmh 30.42 in1030.1 mb 0.00 in0.0 mm 0.00 in0.0 mm 0.01 in0.3 mm
11:25 PM 49.8°F9.9°C 46.8°F8.2°C 89% Calm Calm 0.9 mph1.4 kmh 30.42 in1030.1 mb 0.00 in0.0 mm 0.00 in0.0 mm 0.01 in0.3 mm
11:35 PM 49.6°F9.8°C 46.6°F8.1°C 89% Calm Calm -- 30.42 in1030.1 mb 0.00 in0.0 mm 0.00 in0.0 mm 0.01 in0.3 mm
11:45 PM 49.5°F9.7°C 46.6°F8.1°C 90% Calm Calm 2.0 mph3.2 kmh 30.42 in1030.1 mb 0.00 in0.0 mm 0.00 in0.0 mm 0.01 in0.3 mm
11:55 PM 49.1°F9.5°C 46.2°F7.9°C 90% Calm Calm 2.0 mph3.2 kmh 30.42 in1030.1 mb 0.00 in0.0 mm 0.00 in0.0 mm 0.01 in0.3 mm